Pagrindinis puslapis
METAR-TAF:

METAR-TAF

Oro uostai :

Leonardo da Vinčio-Fjumičino oro uostas

Roma-Fjumičinas, Italija

platuma: 41-48N, ilguma: 012-14E, Aukštis: 2 m

Dabartinis oras

Ataskaita buvo paskelbta 28 minutes, ne 01:20 UTC
Vėjas 3 kt iš Rytų
Temperatūra 13°C
Drėgmė 94%
Slėgis 1017 hPa
Matomumas 10 km arba daugiau
nėra debesų žemiau 1500 m ir nėra kamuolinių lietaus debesų

METAR: LIRF 300120Z 08003KT CAVOK 13/12 Q1017 NOSIG

Laikas: 03:48 (01:48 UTC)

Prognozė

Ataskaita buvo paskelbta 2 valandos ir 48 minutes, ne 23:00 UTC
Prognozė galioja nuo 30 metu 00 UTC su 01 metu 06 UTC
Vėjas 5 kt iš Rytų/Šiaurės Rytų
Matomumas 10 km arba daugiau
Išsisklaidę debesys ne aukštis 3000 ft
Laikinai
nuo 30 metu 04 UTC su 30 metu 08 UTC
lietus
Tapsmas
nuo 30 metu 09 UTC su 30 metu 11 UTC
Vėjas 12 kt iš Pietų
Tapsmas
nuo 30 metu 17 UTC su 30 metu 19 UTC
Vėjas 5 kt nuo kintamojo kryptimis

TAF: LIRF 292300Z 3000/0106 07005KT 9999 SCT030 TEMPO 3004/3008 RA BECMG 3009/3011 19012KT BECMG 3017/3019 VRB05KT

Orai ataskaitas ir orų prognozės (METAR, TAF).

turimą stotys yra geltonos ir raudonos taškus žemėlapyje.

Perkelti pele per norėdami pamatyti stoties vardą.

Tada spustelėkite, norėdami matyti oro stebėjimo ir prognozės.

Norėdami pakeisti žemėlapį: spustelėkite ant žalios mygtukų su juodo kryžiaus žemyn,; žalią mygtuką su brūkšneliu, jei norite nutolinti; arba žalių rodyklių gretimoms žemėlapius.


METAR-TAF: